Time,TemperatureF,DewpointF,PressureIn,WindDirection,WindDirectionDegrees,WindSpeedMPH,WindSpeedGustMPH,Humidity,HourlyPrecipIn,Conditions,Clouds,dailyrainin,SoftwareType,DateUTC
2013-03-16 00:00:00,24.8,21.5,29.91,North,0,1.3,1.3,87,0.00,,---,0.00,VWS V14.01,2013-03-16 05:00:00,
2013-03-16 00:05:00,24.8,21.5,29.91,NNE,22,2.9,3.1,87,0.00,,---,0.00,VWS V14.01,2013-03-16 05:05:00,
2013-03-16 00:11:00,24.6,21.3,29.91,NW,315,4.3,4.3,87,0.00,,---,0.00,VWS V14.01,2013-03-16 05:11:00,
2013-03-16 00:17:00,24.4,21.1,29.91,NW,315,2.0,2.2,87,0.00,,---,0.00,VWS V14.01,2013-03-16 05:17:00,
2013-03-16 00:22:00,24.4,21.1,29.91,West,270,1.3,1.6,87,0.00,,---,0.00,VWS V14.01,2013-03-16 05:22:00,
2013-03-16 00:27:00,24.4,21.1,29.91,NNE,22,1.1,3.6,87,0.00,,---,0.00,VWS V14.01,2013-03-16 05:27:00,
2013-03-16 00:33:00,24.4,21.1,29.91,NNE,22,3.4,4.9,87,0.00,,---,0.00,VWS V14.01,2013-03-16 05:33:00,
2013-03-16 00:39:00,24.3,21.0,29.91,ENE,68,2.2,2.7,87,0.00,,---,0.00,VWS V14.01,2013-03-16 05:39:00,
2013-03-16 00:44:00,24.1,20.8,29.91,NNW,338,3.4,3.4,87,0.00,,---,0.00,VWS V14.01,2013-03-16 05:44:00,
2013-03-16 00:49:00,24.1,20.8,29.91,NNW,338,3.1,3.4,87,0.00,,---,0.00,VWS V14.01,2013-03-16 05:49:00,
2013-03-16 00:55:00,23.9,20.6,29.91,NW,315,4.3,4.3,87,0.00,,---,0.00,VWS V14.01,2013-03-16 05:55:00,
2013-03-16 01:01:00,23.7,20.4,29.94,NNE,22,2.0,4.3,87,0.00,,---,0.00,VWS V14.01,2013-03-16 06:01:00,
2013-03-16 01:07:00,23.9,20.6,29.94,ENE,68,3.6,5.4,87,0.00,,---,0.00,VWS V14.01,2013-03-16 06:07:00,
2013-03-16 01:12:00,23.7,20.4,29.94,WNW,292,3.4,4.0,87,0.00,,---,0.00,VWS V14.01,2013-03-16 06:12:00,
2013-03-16 01:17:00,23.7,20.1,29.94,NE,45,5.4,5.4,86,0.00,,---,0.00,VWS V14.01,2013-03-16 06:17:00,
2013-03-16 01:23:00,23.5,20.0,29.94,North,0,3.1,5.4,86,0.00,,---,0.00,VWS V14.01,2013-03-16 06:23:00,
2013-03-16 01:28:00,23.5,20.0,29.94,ENE,68,2.9,3.4,86,0.00,,---,0.00,VWS V14.01,2013-03-16 06:28:00,
2013-03-16 01:33:00,23.4,19.8,29.94,NNE,22,2.2,3.8,86,0.00,,---,0.00,VWS V14.01,2013-03-16 06:33:00,
2013-03-16 01:39:00,23.4,19.8,29.94,ENE,68,2.0,2.2,86,0.00,,---,0.00,VWS V14.01,2013-03-16 06:39:00,
2013-03-16 01:44:00,23.4,19.8,29.94,East,90,2.2,2.2,86,0.00,,---,0.00,VWS V14.01,2013-03-16 06:44:00,
2013-03-16 01:50:00,23.2,19.6,29.94,NNW,338,2.0,4.0,86,0.00,,---,0.00,VWS V14.01,2013-03-16 06:50:00,
2013-03-16 01:55:00,23.0,19.5,29.94,NNW,338,3.8,6.3,86,0.00,,---,0.00,VWS V14.01,2013-03-16 06:55:00,
2013-03-16 02:01:00,22.8,19.3,29.94,ENE,68,3.1,4.0,86,0.00,,---,0.00,VWS V14.01,2013-03-16 07:01:00,
2013-03-16 02:07:00,22.8,19.3,29.94,East,90,1.6,2.9,86,0.00,,---,0.00,VWS V14.01,2013-03-16 07:07:00,
2013-03-16 02:13:00,22.8,19.3,29.94,North,0,3.6,3.6,86,0.00,,---,0.00,VWS V14.01,2013-03-16 07:13:00,
2013-03-16 02:19:00,22.8,19.3,29.94,NNE,22,3.4,3.4,86,0.00,,---,0.00,VWS V14.01,2013-03-16 07:19:00,
2013-03-16 02:24:00,22.8,19.3,29.94,ENE,68,1.1,2.0,86,0.00,,---,0.00,VWS V14.01,2013-03-16 07:24:00,
2013-03-16 02:30:00,22.8,19.3,29.94,NNE,22,4.9,4.9,86,0.00,,---,0.00,VWS V14.01,2013-03-16 07:30:00,
2013-03-16 02:35:00,22.5,18.4,29.94,NNE,22,3.6,7.2,84,0.00,,---,0.00,VWS V14.01,2013-03-16 07:35:00,
2013-03-16 02:40:00,22.5,18.6,29.94,NE,45,2.9,4.0,85,0.00,,---,0.00,VWS V14.01,2013-03-16 07:40:00,
2013-03-16 02:46:00,22.3,18.2,29.94,NNW,338,1.3,2.5,84,0.00,,---,0.00,VWS V14.01,2013-03-16 07:46:00,
2013-03-16 02:52:00,22.1,18.0,29.94,North,0,3.1,7.2,84,0.00,,---,0.00,VWS V14.01,2013-03-16 07:52:00,
2013-03-16 02:57:00,22.1,18.0,29.97,NE,45,3.8,3.8,84,0.00,,---,0.00,VWS V14.01,2013-03-16 07:57:00,
2013-03-16 03:02:00,21.9,17.6,29.97,North,0,3.4,4.3,83,0.00,,---,0.00,VWS V14.01,2013-03-16 08:02:00,
2013-03-16 03:08:00,21.7,17.1,29.97,ENE,68,4.0,4.3,82,0.00,,---,0.00,VWS V14.01,2013-03-16 08:08:00,
2013-03-16 03:14:00,21.6,16.9,29.97,NW,315,2.9,4.9,82,0.00,,---,0.00,VWS V14.01,2013-03-16 08:14:00,
2013-03-16 03:19:00,21.6,16.9,29.97,NNW,338,3.1,4.0,82,0.00,,---,0.00,VWS V14.01,2013-03-16 08:19:00,
2013-03-16 03:24:00,21.6,16.9,29.97,NE,45,2.7,4.3,82,0.00,,---,0.00,VWS V14.01,2013-03-16 08:24:00,
2013-03-16 03:29:00,21.2,16.6,29.97,North,0,2.5,4.9,82,0.00,,---,0.00,VWS V14.01,2013-03-16 08:29:00,
2013-03-16 03:34:00,21.2,16.6,29.97,North,0,6.3,6.3,82,0.00,,---,0.00,VWS V14.01,2013-03-16 08:34:00,
2013-03-16 03:39:00,21.2,16.6,29.97,ENE,68,3.4,6.0,82,0.00,,---,0.00,VWS V14.01,2013-03-16 08:39:00,
2013-03-16 03:45:00,21.2,16.6,29.97,NE,45,2.9,3.6,82,0.00,,---,0.00,VWS V14.01,2013-03-16 08:45:00,
2013-03-16 03:50:00,21.2,16.3,29.97,North,0,2.9,3.4,81,0.00,,---,0.00,VWS V14.01,2013-03-16 08:50:00,
2013-03-16 03:55:00,21.0,16.1,29.97,North,0,4.0,4.0,81,0.00,,---,0.00,VWS V14.01,2013-03-16 08:55:00,
2013-03-16 04:00:00,21.0,16.1,29.97,NNW,338,7.6,7.6,81,0.00,,---,0.00,VWS V14.01,2013-03-16 09:00:00,
2013-03-16 04:05:00,20.8,15.9,29.97,North,0,3.8,6.0,81,0.00,,---,0.00,VWS V14.01,2013-03-16 09:05:00,
2013-03-16 04:12:00,20.8,15.9,29.97,NNE,22,4.3,4.9,81,0.00,,---,0.00,VWS V14.01,2013-03-16 09:12:00,
2013-03-16 04:17:00,20.7,15.5,29.97,WNW,292,3.8,4.0,80,0.00,,---,0.00,VWS V14.01,2013-03-16 09:17:00,
2013-03-16 04:23:00,20.7,15.5,29.97,NNW,338,2.7,4.3,80,0.00,,---,0.00,VWS V14.01,2013-03-16 09:23:00,
2013-03-16 04:28:00,20.7,15.5,29.97,NE,45,3.8,3.8,80,0.00,,---,0.00,VWS V14.01,2013-03-16 09:28:00,
2013-03-16 04:34:00,20.7,15.2,29.97,NE,45,1.6,2.7,79,0.00,,---,0.00,VWS V14.01,2013-03-16 09:34:00,
2013-03-16 04:39:00,20.7,15.2,29.97,NNE,22,2.5,3.6,79,0.00,,---,0.00,VWS V14.01,2013-03-16 09:39:00,
2013-03-16 04:45:00,20.7,15.2,30.00,NW,315,4.9,4.9,79,0.00,,---,0.00,VWS V14.01,2013-03-16 09:45:00,
2013-03-16 04:50:00,20.5,15.0,30.00,NNW,338,3.1,3.1,79,0.00,,---,0.00,VWS V14.01,2013-03-16 09:50:00,
2013-03-16 04:57:00,20.5,14.7,30.00,WNW,292,2.0,2.7,78,0.00,,---,0.00,VWS V14.01,2013-03-16 09:57:00,
2013-03-16 05:02:00,20.5,14.7,30.00,NNE,22,4.3,4.7,78,0.00,,---,0.00,VWS V14.01,2013-03-16 10:02:00,
2013-03-16 05:07:00,20.5,14.7,30.00,North,0,3.4,4.0,78,0.00,,---,0.00,VWS V14.01,2013-03-16 10:07:00,
2013-03-16 05:12:00,20.5,14.7,30.00,NNE,22,2.5,4.9,78,0.00,,---,0.00,VWS V14.01,2013-03-16 10:12:00,
2013-03-16 05:18:00,20.5,14.4,30.00,East,90,5.8,5.8,77,0.00,,---,0.00,VWS V14.01,2013-03-16 10:18:00,
2013-03-16 05:24:00,20.5,14.4,30.00,NNE,22,2.5,4.9,77,0.00,,---,0.00,VWS V14.01,2013-03-16 10:24:00,
2013-03-16 05:29:00,20.5,14.4,30.03,ENE,68,2.7,2.9,77,0.00,,---,0.00,VWS V14.01,2013-03-16 10:29:00,
2013-03-16 05:34:00,20.5,14.4,30.03,ENE,68,3.1,3.6,77,0.00,,---,0.00,VWS V14.01,2013-03-16 10:34:00,
2013-03-16 05:40:00,20.5,14.4,30.03,NNW,338,2.5,2.7,77,0.00,,---,0.00,VWS V14.01,2013-03-16 10:40:00,
2013-03-16 05:45:00,20.5,14.4,30.03,ENE,68,3.4,4.0,77,0.00,,---,0.00,VWS V14.01,2013-03-16 10:45:00,
2013-03-16 05:51:00,20.5,14.4,30.03,NNW,338,2.0,2.9,77,0.00,,---,0.00,VWS V14.01,2013-03-16 10:51:00,
2013-03-16 05:57:00,20.5,14.1,30.03,NNW,338,1.6,2.9,76,0.00,,---,0.00,VWS V14.01,2013-03-16 10:57:00,
2013-03-16 06:03:00,20.5,14.1,30.03,NNW,338,2.7,5.4,76,0.00,,---,0.00,VWS V14.01,2013-03-16 11:03:00,
2013-03-16 06:08:00,20.5,14.1,30.03,NE,45,3.4,3.6,76,0.00,,---,0.00,VWS V14.01,2013-03-16 11:08:00,
2013-03-16 06:14:00,20.3,14.0,30.03,North,0,1.6,2.7,76,0.00,,---,0.00,VWS V14.01,2013-03-16 11:14:00,
2013-03-16 06:19:00,20.3,14.0,30.03,North,0,2.9,3.8,76,0.00,,---,0.00,VWS V14.01,2013-03-16 11:19:00,
2013-03-16 06:24:00,20.3,13.7,30.03,NNW,338,1.6,3.6,75,0.00,,---,0.00,VWS V14.01,2013-03-16 11:24:00,
2013-03-16 06:29:00,19.9,13.3,30.03,NE,45,3.6,4.0,75,0.00,,---,0.00,VWS V14.01,2013-03-16 11:29:00,
2013-03-16 06:35:00,19.9,13.3,30.03,NNE,22,1.3,4.0,75,0.00,,---,0.00,VWS V14.01,2013-03-16 11:35:00,
2013-03-16 06:40:00,19.8,13.1,30.03,NNW,338,2.7,3.6,75,0.00,,---,0.00,VWS V14.01,2013-03-16 11:40:00,
2013-03-16 06:45:00,19.6,13.0,30.03,NNE,22,2.7,2.9,75,0.00,,---,0.00,VWS V14.01,2013-03-16 11:45:00,
2013-03-16 06:50:00,19.4,12.8,30.03,NNW,338,4.9,4.9,75,0.00,,---,0.00,VWS V14.01,2013-03-16 11:50:00,
2013-03-16 06:56:00,19.4,12.8,30.06,NNE,22,3.1,4.3,75,0.00,,---,0.00,VWS V14.01,2013-03-16 11:56:00,
2013-03-16 07:02:00,19.2,12.6,30.06,NW,315,3.8,6.0,75,0.00,,---,0.00,VWS V14.01,2013-03-16 12:02:00,
2013-03-16 07:07:00,19.0,12.4,30.06,NNE,22,3.1,4.9,75,0.00,,---,0.00,VWS V14.01,2013-03-16 12:07:00,
2013-03-16 07:13:00,18.9,12.3,30.06,NW,315,2.9,8.1,75,0.00,,---,0.00,VWS V14.01,2013-03-16 12:13:00,
2013-03-16 07:19:00,18.7,12.1,30.06,NNE,22,3.8,3.8,75,0.00,,---,0.00,VWS V14.01,2013-03-16 12:19:00,
2013-03-16 07:25:00,18.5,11.9,30.09,WNW,292,3.4,4.9,75,0.00,,---,0.00,VWS V14.01,2013-03-16 12:25:00,
2013-03-16 07:30:00,18.5,11.9,30.09,NNW,338,4.0,4.0,75,0.00,,---,0.00,VWS V14.01,2013-03-16 12:30:00,
2013-03-16 07:36:00,18.5,11.9,30.09,NW,315,3.1,5.6,75,0.00,,---,0.00,VWS V14.01,2013-03-16 12:36:00,
2013-03-16 07:41:00,18.5,11.9,30.06,North,0,2.0,4.3,75,0.00,,---,0.00,VWS V14.01,2013-03-16 12:41:00,
2013-03-16 07:47:00,18.3,11.7,30.06,NNE,22,2.9,2.9,75,0.00,,---,0.00,VWS V14.01,2013-03-16 12:47:00,
2013-03-16 07:52:00,18.3,11.7,30.06,North,0,3.6,4.7,75,0.00,,---,0.00,VWS V14.01,2013-03-16 12:52:00,
2013-03-16 07:58:00,18.3,12.0,30.09,NNW,338,2.9,6.3,76,0.00,,---,0.00,VWS V14.01,2013-03-16 12:58:00,
2013-03-16 08:03:00,18.5,12.2,30.09,NNE,22,4.3,4.5,76,0.00,,---,0.00,VWS V14.01,2013-03-16 13:03:00,
2013-03-16 08:08:00,19.0,12.7,30.09,North,0,4.0,4.7,76,0.00,,---,0.00,VWS V14.01,2013-03-16 13:08:00,
2013-03-16 08:14:00,19.2,12.9,30.09,North,0,2.0,2.2,76,0.00,,---,0.00,VWS V14.01,2013-03-16 13:14:00,
2013-03-16 08:20:00,20.1,13.5,30.09,East,90,4.0,4.9,75,0.00,,---,0.00,VWS V14.01,2013-03-16 13:20:00,
2013-03-16 08:25:00,20.8,14.2,30.09,NNW,338,2.0,2.0,75,0.00,,---,0.00,VWS V14.01,2013-03-16 13:25:00,
2013-03-16 08:31:00,21.7,14.1,30.09,NNE,22,2.5,4.7,72,0.00,,---,0.00,VWS V14.01,2013-03-16 13:31:00,
2013-03-16 08:38:00,22.5,14.5,30.09,North,0,4.7,4.7,71,0.00,,---,0.00,VWS V14.01,2013-03-16 13:38:00,
2013-03-16 08:44:00,23.2,14.5,30.09,West,270,3.6,6.3,69,0.00,,---,0.00,VWS V14.01,2013-03-16 13:44:00,
2013-03-16 08:49:00,23.4,13.7,30.09,NNW,338,4.9,5.6,66,0.00,,---,0.00,VWS V14.01,2013-03-16 13:49:00,
2013-03-16 08:55:00,23.4,13.0,30.09,WNW,292,2.7,3.8,64,0.00,,---,0.00,VWS V14.01,2013-03-16 13:55:00,
2013-03-16 09:00:00,23.5,12.4,30.09,East,90,2.5,6.3,62,0.00,,---,0.00,VWS V14.01,2013-03-16 14:00:00,
2013-03-16 09:05:00,23.2,11.7,30.09,North,0,2.7,4.0,61,0.00,,---,0.00,VWS V14.01,2013-03-16 14:05:00,
2013-03-16 09:11:00,23.7,12.2,30.12,NNE,22,4.0,4.0,61,0.00,,---,0.00,VWS V14.01,2013-03-16 14:11:00,
2013-03-16 09:16:00,24.8,13.3,30.12,North,0,5.4,7.4,61,0.00,,---,0.00,VWS V14.01,2013-03-16 14:16:00,
2013-03-16 09:21:00,25.7,13.8,30.12,NE,45,4.3,4.3,60,0.00,,---,0.00,VWS V14.01,2013-03-16 14:21:00,
2013-03-16 09:27:00,26.1,13.7,30.12,NNW,338,2.0,4.0,59,0.00,,---,0.00,VWS V14.01,2013-03-16 14:27:00,
2013-03-16 09:32:00,26.8,14.4,30.12,WNW,292,3.4,4.9,59,0.00,,---,0.00,VWS V14.01,2013-03-16 14:32:00,
2013-03-16 09:38:00,27.5,14.7,30.12,NNW,338,2.0,4.7,58,0.00,,---,0.00,VWS V14.01,2013-03-16 14:38:00,
2013-03-16 09:43:00,28.2,14.6,30.12,NE,45,3.6,3.6,56,0.00,,---,0.00,VWS V14.01,2013-03-16 14:43:00,
2013-03-16 09:48:00,28.9,14.8,30.12,NW,315,5.4,5.4,55,0.00,,---,0.00,VWS V14.01,2013-03-16 14:48:00,
2013-03-16 09:54:00,29.8,15.2,30.12,NNE,22,3.8,3.8,54,0.00,,---,0.00,VWS V14.01,2013-03-16 14:54:00,
2013-03-16 09:59:00,29.3,13.9,30.12,ENE,68,1.6,3.8,52,0.00,,---,0.00,VWS V14.01,2013-03-16 14:59:00,
2013-03-16 10:05:00,29.1,13.3,30.12,WNW,292,1.6,3.1,51,0.00,,---,0.00,VWS V14.01,2013-03-16 15:05:00,
2013-03-16 10:11:00,28.6,12.8,30.12,WNW,292,3.6,3.8,51,0.00,,---,0.00,VWS V14.01,2013-03-16 15:11:00,
2013-03-16 10:17:00,27.9,12.1,30.12,NNE,22,3.6,3.6,51,0.00,,---,0.00,VWS V14.01,2013-03-16 15:17:00,
2013-03-16 10:22:00,27.9,12.1,30.12,NNE,22,3.1,3.4,51,0.00,,---,0.00,VWS V14.01,2013-03-16 15:22:00,
2013-03-16 10:28:00,27.1,11.0,30.12,NW,315,2.0,3.8,50,0.00,,---,0.00,VWS V14.01,2013-03-16 15:28:00,
2013-03-16 10:33:00,27.5,11.3,30.12,NNE,22,3.6,4.7,50,0.00,,---,0.00,VWS V14.01,2013-03-16 15:33:00,
2013-03-16 10:38:00,28.2,12.4,30.12,NW,315,5.4,5.4,51,0.00,,---,0.00,VWS V14.01,2013-03-16 15:38:00,
2013-03-16 10:43:00,27.7,11.0,30.12,WNW,292,3.4,5.6,49,0.00,,---,0.00,VWS V14.01,2013-03-16 15:43:00,
2013-03-16 10:49:00,27.1,11.0,30.12,NNE,22,2.7,4.7,50,0.00,,---,0.00,VWS V14.01,2013-03-16 15:49:00,
2013-03-16 10:54:00,28.2,12.4,30.12,NNE,22,3.1,4.0,51,0.00,,---,0.00,VWS V14.01,2013-03-16 15:54:00,
2013-03-16 10:59:00,30.4,14.4,30.12,WNW,292,2.7,3.8,51,0.00,,---,0.00,VWS V14.01,2013-03-16 15:59:00,
2013-03-16 11:04:00,30.2,12.9,30.12,NNW,338,3.8,4.0,48,0.00,,---,0.00,VWS V14.01,2013-03-16 16:04:00,
2013-03-16 11:10:00,30.2,13.4,30.12,North,0,5.8,5.8,49,0.00,,---,0.00,VWS V14.01,2013-03-16 16:10:00,
2013-03-16 11:15:00,30.4,13.1,30.12,NE,45,4.9,4.9,48,0.00,,---,0.00,VWS V14.01,2013-03-16 16:15:00,
2013-03-16 11:21:00,29.3,12.1,30.12,WSW,248,2.9,4.3,48,0.00,,---,0.00,VWS V14.01,2013-03-16 16:21:00,
2013-03-16 11:27:00,29.5,11.8,30.15,NNE,22,1.1,3.4,47,0.00,,---,0.00,VWS V14.01,2013-03-16 16:27:00,
2013-03-16 11:33:00,31.1,13.7,30.15,NE,45,2.7,3.4,48,0.00,,---,0.00,VWS V14.01,2013-03-16 16:33:00,
2013-03-16 11:38:00,32.9,15.4,30.15,NW,315,3.6,3.6,48,0.00,,---,0.00,VWS V14.01,2013-03-16 16:38:00,
2013-03-16 11:43:00,30.7,11.9,30.15,WNW,292,2.7,3.6,45,0.00,,---,0.00,VWS V14.01,2013-03-16 16:43:00,
2013-03-16 11:48:00,28.8,10.6,30.15,WSW,248,3.6,3.6,46,0.00,,---,0.00,VWS V14.01,2013-03-16 16:48:00,
2013-03-16 11:53:00,29.5,11.8,30.15,SW,225,4.7,4.7,47,0.00,,---,0.00,VWS V14.01,2013-03-16 16:53:00,
2013-03-16 11:58:00,30.9,13.1,30.15,WNW,292,4.3,4.3,47,0.00,,---,0.00,VWS V14.01,2013-03-16 16:58:00,
2013-03-16 12:03:00,30.7,11.9,30.15,NNW,338,3.8,7.6,45,0.00,,---,0.00,VWS V14.01,2013-03-16 17:03:00,
2013-03-16 12:09:00,30.2,11.9,30.15,West,270,4.3,4.3,46,0.00,,---,0.00,VWS V14.01,2013-03-16 17:09:00,
2013-03-16 12:14:00,31.1,12.8,30.12,NE,45,2.7,2.7,46,0.00,,---,0.00,VWS V14.01,2013-03-16 17:14:00,
2013-03-16 12:20:00,30.0,11.8,30.12,WSW,248,1.6,4.3,46,0.00,,---,0.00,VWS V14.01,2013-03-16 17:20:00,
2013-03-16 12:25:00,30.2,11.9,30.12,ENE,68,4.0,5.8,46,0.00,,---,0.00,VWS V14.01,2013-03-16 17:25:00,
2013-03-16 12:31:00,30.2,11.9,30.12,North,0,3.1,5.4,46,0.00,,---,0.00,VWS V14.01,2013-03-16 17:31:00,
2013-03-16 12:37:00,29.5,11.8,30.12,WSW,248,1.6,2.9,47,0.00,,---,0.00,VWS V14.01,2013-03-16 17:37:00,
2013-03-16 12:42:00,29.8,12.1,30.15,NW,315,1.3,5.6,47,0.00,,---,0.00,VWS V14.01,2013-03-16 17:42:00,
2013-03-16 12:48:00,29.1,11.9,30.15,WNW,292,3.8,6.0,48,0.00,,---,0.00,VWS V14.01,2013-03-16 17:48:00,
2013-03-16 12:54:00,29.3,12.1,30.15,NNW,338,4.0,6.0,48,0.00,,---,0.00,VWS V14.01,2013-03-16 17:54:00,
2013-03-16 12:59:00,30.2,13.4,30.15,WNW,292,1.6,5.8,49,0.00,,---,0.00,VWS V14.01,2013-03-16 17:59:00,
2013-03-16 13:05:00,28.6,11.4,30.15,West,270,3.4,7.2,48,0.00,,---,0.00,VWS V14.01,2013-03-16 18:05:00,
2013-03-16 13:10:00,27.5,10.9,30.15,WSW,248,3.8,4.3,49,0.00,,---,0.00,VWS V14.01,2013-03-16 18:10:00,
2013-03-16 13:16:00,28.4,12.1,30.15,WNW,292,2.5,4.9,50,0.00,,---,0.00,VWS V14.01,2013-03-16 18:16:00,
2013-03-16 13:22:00,27.5,10.9,30.15,WNW,292,3.8,4.7,49,0.00,,---,0.00,VWS V14.01,2013-03-16 18:22:00,
2013-03-16 13:28:00,27.1,11.0,30.15,NNW,338,2.9,4.9,50,0.00,,---,0.00,VWS V14.01,2013-03-16 18:28:00,
2013-03-16 13:34:00,29.1,12.8,30.15,NW,315,3.4,4.7,50,0.00,,---,0.00,VWS V14.01,2013-03-16 18:34:00,
2013-03-16 13:40:00,29.8,13.5,30.15,NE,45,3.8,7.4,50,0.00,,---,0.00,VWS V14.01,2013-03-16 18:40:00,
2013-03-16 13:45:00,30.2,13.4,30.15,WSW,248,4.9,4.9,49,0.00,,---,0.00,VWS V14.01,2013-03-16 18:45:00,
2013-03-16 13:51:00,29.8,12.1,30.15,WSW,248,5.4,7.8,47,0.00,,---,0.00,VWS V14.01,2013-03-16 18:51:00,
2013-03-16 13:56:00,29.5,11.8,30.15,WNW,292,1.3,3.6,47,0.00,,---,0.00,VWS V14.01,2013-03-16 18:56:00,
2013-03-16 14:02:00,28.8,10.6,30.15,WNW,292,3.4,5.8,46,0.00,,---,0.00,VWS V14.01,2013-03-16 19:02:00,
2013-03-16 14:07:00,29.1,11.4,30.15,NW,315,5.8,7.6,47,0.00,,---,0.00,VWS V14.01,2013-03-16 19:07:00,
2013-03-16 14:12:00,28.9,10.8,30.15,North,0,4.0,6.0,46,0.00,,---,0.00,VWS V14.01,2013-03-16 19:12:00,
2013-03-16 14:17:00,28.6,10.4,30.15,West,270,5.6,5.8,46,0.00,,---,0.00,VWS V14.01,2013-03-16 19:17:00,
2013-03-16 14:23:00,28.0,9.9,30.15,WSW,248,5.6,7.8,46,0.00,,---,0.00,VWS V14.01,2013-03-16 19:23:00,
2013-03-16 14:28:00,27.9,9.8,30.15,West,270,3.1,3.4,46,0.00,,---,0.00,VWS V14.01,2013-03-16 19:28:00,
2013-03-16 14:33:00,27.3,9.3,30.15,NNW,338,3.1,6.5,46,0.00,,---,0.00,VWS V14.01,2013-03-16 19:33:00,
2013-03-16 14:39:00,27.7,9.6,30.15,West,270,2.9,4.9,46,0.00,,---,0.00,VWS V14.01,2013-03-16 19:39:00,
2013-03-16 14:45:00,27.7,9.6,30.12,WSW,248,2.5,6.3,46,0.00,,---,0.00,VWS V14.01,2013-03-16 19:45:00,
2013-03-16 14:50:00,27.9,9.8,30.12,WSW,248,6.3,6.3,46,0.00,,---,0.00,VWS V14.01,2013-03-16 19:50:00,
2013-03-16 14:57:00,27.7,9.1,30.12,WNW,292,1.1,3.8,45,0.00,,---,0.00,VWS V14.01,2013-03-16 19:57:00,
2013-03-16 15:03:00,27.9,9.3,30.12,NW,315,5.4,6.3,45,0.00,,---,0.00,VWS V14.01,2013-03-16 20:03:00,
2013-03-16 15:08:00,27.5,9.0,30.12,NE,45,2.2,5.8,45,0.00,,---,0.00,VWS V14.01,2013-03-16 20:08:00,
2013-03-16 15:14:00,27.0,8.0,30.15,WSW,248,3.8,6.5,44,0.00,,---,0.00,VWS V14.01,2013-03-16 20:14:00,
2013-03-16 15:19:00,26.8,7.8,30.15,NNW,338,6.3,6.5,44,0.00,,---,0.00,VWS V14.01,2013-03-16 20:19:00,
2013-03-16 15:25:00,27.0,8.5,30.15,North,0,3.1,6.0,45,0.00,,---,0.00,VWS V14.01,2013-03-16 20:25:00,
2013-03-16 15:32:00,26.6,8.1,30.12,NE,45,4.3,5.6,45,0.00,,---,0.00,VWS V14.01,2013-03-16 20:32:00,
2013-03-16 15:38:00,26.8,8.3,30.12,West,270,3.4,6.0,45,0.00,,---,0.00,VWS V14.01,2013-03-16 20:38:00,
2013-03-16 15:43:00,26.4,7.5,30.12,NW,315,1.1,1.1,44,0.00,,---,0.00,VWS V14.01,2013-03-16 20:43:00,
2013-03-16 15:49:00,26.4,7.5,30.12,SSW,202,3.8,3.8,44,0.00,,---,0.00,VWS V14.01,2013-03-16 20:49:00,
2013-03-16 15:54:00,26.2,7.8,30.12,NW,315,6.0,6.0,45,0.00,,---,0.00,VWS V14.01,2013-03-16 20:54:00,
2013-03-16 15:59:00,26.2,7.8,30.12,NNE,22,3.4,6.5,45,0.00,,---,0.00,VWS V14.01,2013-03-16 20:59:00,
2013-03-16 16:04:00,26.1,7.6,30.12,WNW,292,2.7,5.4,45,0.00,,---,0.00,VWS V14.01,2013-03-16 21:04:00,
2013-03-16 16:10:00,25.9,7.5,30.12,NNE,22,7.2,7.6,45,0.00,,---,0.00,VWS V14.01,2013-03-16 21:10:00,
2013-03-16 16:17:00,26.1,7.2,30.12,West,270,7.6,7.6,44,0.00,,---,0.00,VWS V14.01,2013-03-16 21:17:00,
2013-03-16 16:23:00,26.1,7.2,30.12,NW,315,9.6,9.6,44,0.00,,---,0.00,VWS V14.01,2013-03-16 21:23:00,
2013-03-16 16:29:00,26.1,7.2,30.12,WNW,292,7.4,7.4,44,0.00,,---,0.00,VWS V14.01,2013-03-16 21:29:00,
2013-03-16 16:34:00,25.9,6.5,30.12,West,270,4.3,5.6,43,0.00,,---,0.00,VWS V14.01,2013-03-16 21:34:00,
2013-03-16 16:39:00,26.1,7.2,30.12,NW,315,2.9,4.9,44,0.00,,---,0.00,VWS V14.01,2013-03-16 21:39:00,
2013-03-16 16:45:00,26.1,6.6,30.12,ESE,112,3.6,4.9,43,0.00,,---,0.00,VWS V14.01,2013-03-16 21:45:00,
2013-03-16 16:50:00,26.1,7.2,30.12,WSW,248,6.5,6.9,44,0.00,,---,0.00,VWS V14.01,2013-03-16 21:50:00,
2013-03-16 16:55:00,26.1,7.2,30.12,WNW,292,1.3,2.5,44,0.00,,---,0.00,VWS V14.01,2013-03-16 21:55:00,
2013-03-16 17:02:00,25.9,7.0,30.09,NNW,338,6.0,6.0,44,0.00,,---,0.00,VWS V14.01,2013-03-16 22:02:00,
2013-03-16 17:07:00,25.9,7.0,30.09,SSW,202,1.6,2.9,44,0.00,,---,0.00,VWS V14.01,2013-03-16 22:07:00,
2013-03-16 17:13:00,25.9,7.0,30.09,SE,135,0.9,7.6,44,0.00,,---,0.00,VWS V14.01,2013-03-16 22:13:00,
2013-03-16 17:18:00,25.3,6.5,30.09,West,270,2.7,5.4,44,0.00,,---,0.00,VWS V14.01,2013-03-16 22:18:00,
2013-03-16 17:24:00,25.3,6.5,30.09,WSW,248,1.3,4.3,44,0.00,,---,0.00,VWS V14.01,2013-03-16 22:24:00,
2013-03-16 17:29:00,25.2,6.3,30.09,WSW,248,3.1,4.3,44,0.00,,---,0.00,VWS V14.01,2013-03-16 22:29:00,
2013-03-16 17:34:00,25.3,6.5,30.09,ENE,68,2.9,2.9,44,0.00,,---,0.00,VWS V14.01,2013-03-16 22:34:00,
2013-03-16 17:39:00,25.2,6.3,30.09,WNW,292,1.1,5.4,44,0.00,,---,0.00,VWS V14.01,2013-03-16 22:39:00,
2013-03-16 17:44:00,25.2,6.3,30.09,NNW,338,4.0,4.0,44,0.00,,---,0.00,VWS V14.01,2013-03-16 22:44:00,
2013-03-16 17:49:00,25.0,6.2,30.09,West,270,2.5,3.1,44,0.00,,---,0.00,VWS V14.01,2013-03-16 22:49:00,
2013-03-16 17:55:00,24.8,6.5,30.09,West,270,4.9,4.9,45,0.00,,---,0.00,VWS V14.01,2013-03-16 22:55:00,
2013-03-16 18:00:00,24.4,5.7,30.09,SW,225,4.7,6.0,44,0.00,,---,0.00,VWS V14.01,2013-03-16 23:00:00,
2013-03-16 18:06:00,24.1,5.3,30.09,WNW,292,2.7,7.4,44,0.00,,---,0.00,VWS V14.01,2013-03-16 23:06:00,
2013-03-16 18:12:00,24.3,6.0,30.12,North,0,2.9,4.3,45,0.00,,---,0.00,VWS V14.01,2013-03-16 23:12:00,
2013-03-16 18:18:00,23.7,5.5,30.12,NNW,338,3.6,5.8,45,0.00,,---,0.00,VWS V14.01,2013-03-16 23:18:00,
2013-03-16 18:23:00,23.5,5.3,30.12,North,0,6.5,6.5,45,0.00,,---,0.00,VWS V14.01,2013-03-16 23:23:00,
2013-03-16 18:29:00,23.2,4.5,30.12,West,270,2.9,4.0,44,0.00,,---,0.00,VWS V14.01,2013-03-16 23:29:00,
2013-03-16 18:34:00,23.0,4.8,30.12,NW,315,3.4,6.5,45,0.00,,---,0.00,VWS V14.01,2013-03-16 23:34:00,
2013-03-16 18:40:00,22.8,4.7,30.12,West,270,4.0,6.3,45,0.00,,---,0.00,VWS V14.01,2013-03-16 23:40:00,
2013-03-16 18:45:00,22.6,4.5,30.12,NW,315,3.6,3.6,45,0.00,,---,0.00,VWS V14.01,2013-03-16 23:45:00,
2013-03-16 18:52:00,22.5,4.3,30.12,West,270,3.6,3.6,45,0.00,,---,0.00,VWS V14.01,2013-03-16 23:52:00,
2013-03-16 18:58:00,22.1,4.0,30.12,North,0,3.1,3.8,45,0.00,,---,0.00,VWS V14.01,2013-03-16 23:58:00,
2013-03-16 19:04:00,21.9,4.3,30.12,WNW,292,3.1,3.1,46,0.00,,---,0.00,VWS V14.01,2013-03-17 00:04:00,
2013-03-16 19:09:00,21.7,4.2,30.12,WNW,292,2.9,5.8,46,0.00,,---,0.00,VWS V14.01,2013-03-17 00:09:00,
2013-03-16 19:14:00,21.6,4.0,30.15,WNW,292,3.4,5.4,46,0.00,,---,0.00,VWS V14.01,2013-03-17 00:14:00,
2013-03-16 19:19:00,21.4,3.8,30.15,West,270,3.4,4.3,46,0.00,,---,0.00,VWS V14.01,2013-03-17 00:19:00,
2013-03-16 19:24:00,21.2,4.1,30.15,NNE,22,1.6,3.4,47,0.00,,---,0.00,VWS V14.01,2013-03-17 00:24:00,
2013-03-16 19:30:00,20.8,3.3,30.15,WNW,292,2.0,5.4,46,0.00,,---,0.00,VWS V14.01,2013-03-17 00:30:00,
2013-03-16 19:35:00,20.7,3.2,30.15,NW,315,2.5,4.0,46,0.00,,---,0.00,VWS V14.01,2013-03-17 00:35:00,
2013-03-16 19:40:00,20.7,3.6,30.15,NW,315,2.2,4.3,47,0.00,,---,0.00,VWS V14.01,2013-03-17 00:40:00,
2013-03-16 19:45:00,20.5,3.5,30.15,NW,315,7.2,7.2,47,0.00,,---,0.00,VWS V14.01,2013-03-17 00:45:00,
2013-03-16 19:52:00,20.3,3.3,30.15,WNW,292,2.7,2.7,47,0.00,,---,0.00,VWS V14.01,2013-03-17 00:52:00,
2013-03-16 19:58:00,20.1,2.7,30.18,West,270,3.1,4.9,46,0.00,,---,0.00,VWS V14.01,2013-03-17 00:58:00,
2013-03-16 20:04:00,19.9,2.5,30.18,NNE,22,4.9,7.6,46,0.00,,---,0.00,VWS V14.01,2013-03-17 01:04:00,
2013-03-16 20:09:00,19.8,2.3,30.18,NNW,338,3.6,3.6,46,0.00,,---,0.00,VWS V14.01,2013-03-17 01:09:00,
2013-03-16 20:15:00,19.6,2.6,30.18,WNW,292,4.0,4.9,47,0.00,,---,0.00,VWS V14.01,2013-03-17 01:15:00,
2013-03-16 20:22:00,19.4,2.5,30.18,West,270,2.2,2.5,47,0.00,,---,0.00,VWS V14.01,2013-03-17 01:22:00,
2013-03-16 20:28:00,19.4,2.5,30.18,NW,315,3.1,3.1,47,0.00,,---,0.00,VWS V14.01,2013-03-17 01:28:00,
2013-03-16 20:33:00,19.2,2.3,30.18,West,270,3.1,3.8,47,0.00,,---,0.00,VWS V14.01,2013-03-17 01:33:00,
2013-03-16 20:39:00,19.0,2.1,30.18,North,0,6.5,6.5,47,0.00,,---,0.00,VWS V14.01,2013-03-17 01:39:00,
2013-03-16 20:44:00,18.9,2.0,30.18,WNW,292,4.3,4.7,47,0.00,,---,0.00,VWS V14.01,2013-03-17 01:44:00,
2013-03-16 20:50:00,18.7,2.3,30.18,NW,315,2.9,3.1,48,0.00,,---,0.00,VWS V14.01,2013-03-17 01:50:00,
2013-03-16 20:56:00,18.5,1.6,30.18,NNW,338,3.6,5.6,47,0.00,,---,0.00,VWS V14.01,2013-03-17 01:56:00,
2013-03-16 21:02:00,18.5,2.1,30.18,WNW,292,5.4,5.4,48,0.00,,---,0.00,VWS V14.01,2013-03-17 02:02:00,
2013-03-16 21:07:00,18.3,1.9,30.18,NNW,338,3.1,4.7,48,0.00,,---,0.00,VWS V14.01,2013-03-17 02:07:00,
2013-03-16 21:12:00,18.3,1.9,30.21,WSW,248,2.5,2.9,48,0.00,,---,0.00,VWS V14.01,2013-03-17 02:12:00,
2013-03-16 21:17:00,18.1,1.8,30.21,NNW,338,6.3,6.3,48,0.00,,---,0.00,VWS V14.01,2013-03-17 02:17:00,
2013-03-16 21:22:00,18.1,1.8,30.21,WSW,248,3.4,4.7,48,0.00,,---,0.00,VWS V14.01,2013-03-17 02:22:00,
2013-03-16 21:28:00,17.8,1.4,30.18,SSW,202,2.0,4.9,48,0.00,,---,0.00,VWS V14.01,2013-03-17 02:28:00,
2013-03-16 21:33:00,17.8,1.4,30.18,WNW,292,2.9,3.8,48,0.00,,---,0.00,VWS V14.01,2013-03-17 02:33:00,
2013-03-16 21:39:00,17.6,1.7,30.18,NE,45,1.1,3.8,49,0.00,,---,0.00,VWS V14.01,2013-03-17 02:39:00,
2013-03-16 21:44:00,17.4,1.5,30.21,ENE,68,4.0,5.8,49,0.00,,---,0.00,VWS V14.01,2013-03-17 02:44:00,
2013-03-16 21:49:00,17.4,1.1,30.21,NW,315,3.6,6.5,48,0.00,,---,0.00,VWS V14.01,2013-03-17 02:49:00,
2013-03-16 21:54:00,17.2,1.4,30.21,West,270,2.7,3.4,49,0.00,,---,0.00,VWS V14.01,2013-03-17 02:54:00,
2013-03-16 21:59:00,17.2,1.4,30.21,NNE,22,3.4,3.6,49,0.00,,---,0.00,VWS V14.01,2013-03-17 02:59:00,
2013-03-16 22:04:00,17.1,1.6,30.21,West,270,2.9,2.9,50,0.00,,---,0.00,VWS V14.01,2013-03-17 03:04:00,
2013-03-16 22:09:00,16.9,1.0,30.21,NW,315,2.0,2.5,49,0.00,,---,0.00,VWS V14.01,2013-03-17 03:09:00,
2013-03-16 22:14:00,16.9,1.0,30.18,WNW,292,2.7,4.0,49,0.00,,---,0.00,VWS V14.01,2013-03-17 03:14:00,
2013-03-16 22:20:00,16.5,0.7,30.18,NNW,338,2.7,4.0,49,0.00,,---,0.00,VWS V14.01,2013-03-17 03:20:00,
2013-03-16 22:25:00,16.5,0.7,30.18,West,270,3.4,5.6,49,0.00,,---,0.00,VWS V14.01,2013-03-17 03:25:00,
2013-03-16 22:30:00,16.2,0.4,30.18,WNW,292,3.1,3.8,49,0.00,,---,0.00,VWS V14.01,2013-03-17 03:30:00,
2013-03-16 22:35:00,16.2,0.4,30.18,NNW,338,2.7,3.1,49,0.00,,---,0.00,VWS V14.01,2013-03-17 03:35:00,
2013-03-16 22:41:00,16.0,0.2,30.21,WNW,292,0.9,2.7,49,0.00,,---,0.00,VWS V14.01,2013-03-17 03:41:00,
2013-03-16 22:46:00,15.8,0.5,30.21,WNW,292,6.5,6.5,50,0.00,,---,0.00,VWS V14.01,2013-03-17 03:46:00,
2013-03-16 22:51:00,15.6,0.3,30.21,NW,315,3.1,3.1,50,0.00,,---,0.00,VWS V14.01,2013-03-17 03:51:00,
2013-03-16 22:57:00,15.4,0.1,30.21,WNW,292,3.8,3.8,50,0.00,,---,0.00,VWS V14.01,2013-03-17 03:57:00,
2013-03-16 23:00:00,15.3,0.0,30.21,WNW,292,2.0,3.6,50,0.00,,---,0.00,VWS V14.01,2013-03-17 04:00:00,
2013-03-16 23:01:00,15.3,0.0,30.21,WSW,248,2.0,3.6,50,0.00,,---,0.00,VWS V14.01,2013-03-17 04:01:00,
2013-03-16 23:03:00,15.3,0.0,30.21,ENE,68,1.3,2.7,50,0.00,,---,0.00,VWS V14.01,2013-03-17 04:03:00,
2013-03-16 23:04:00,15.3,0.0,30.21,WNW,292,2.7,2.7,50,0.00,,---,0.00,VWS V14.01,2013-03-17 04:04:00,
2013-03-16 23:09:00,15.1,0.2,30.21,WSW,248,4.0,4.0,51,0.00,,---,0.00,VWS V14.01,2013-03-17 04:09:00,
2013-03-16 23:15:00,15.1,0.2,30.21,North,0,1.3,2.0,51,0.00,,---,0.00,VWS V14.01,2013-03-17 04:15:00,
2013-03-16 23:20:00,14.9,0.1,30.21,WNW,292,3.6,4.3,51,0.00,,---,0.00,VWS V14.01,2013-03-17 04:20:00,
2013-03-16 23:25:00,14.7,-0.1,30.21,WNW,292,3.1,3.1,51,0.00,,---,0.00,VWS V14.01,2013-03-17 04:25:00,
2013-03-16 23:31:00,14.5,-0.3,30.21,West,270,2.5,2.5,51,0.00,,---,0.00,VWS V14.01,2013-03-17 04:31:00,
2013-03-16 23:36:00,14.4,-0.4,30.21,NE,45,1.3,3.4,51,0.00,,---,0.00,VWS V14.01,2013-03-17 04:36:00,
2013-03-16 23:41:00,14.4,0.0,30.24,NW,315,1.1,3.4,52,0.00,,---,0.00,VWS V14.01,2013-03-17 04:41:00,
2013-03-16 23:46:00,14.2,-0.2,30.24,WSW,248,2.5,2.7,52,0.00,,---,0.00,VWS V14.01,2013-03-17 04:46:00,
2013-03-16 23:51:00,14.2,-0.2,30.24,NNW,338,2.7,2.7,52,0.00,,---,0.00,VWS V14.01,2013-03-17 04:51:00,
2013-03-16 23:56:00,14.2,-0.2,30.21,NNW,338,2.2,2.2,52,0.00,,---,0.00,VWS V14.01,2013-03-17 04:56:00,